AirNav   Everest Fuels
 
 773 users online  

58NR Chase Field Airport
Hookerton, North Carolina, USA

GOING TO HOOKERTON?


FAA INFORMATION EFFECTIVE 03 NOVEMBER 2022

Location

FAA Identifier: 58NR
Lat/Long: 35-25-31.1000N 077-35-50.4000W
35-25.518333N 077-35.840000W
35.4253056,-77.5973333
(estimated)
Elevation: 56 ft. / 17 m
From city: 5 miles W of HOOKERTON, NC
Time zone: UTC -5 (UTC -4 during Daylight Saving Time)
Zip code: 28538

Airport Operations

Airport use: Private use. Permission required prior to landing
Activation date: 03/2014
Control tower: no
ARTCC: WASHINGTON CENTER
FSS: RALEIGH FLIGHT SERVICE STATION
Attendance: UNATNDD
Wind indicator: yes
Segmented circle: no

Airport Communications

WX AWOS-3 at ISO (6 nm S): 132.75 (252-522-2712)
WX AWOS-3 at PGV (16 nm NE): 128.425 (252-758-6485)
WX AWOS-3P at GWW (18 nm W): 118.975 (919-731-4473)
WX AWOS-3PT at GSB (19 nm W): 317.625

Nearby radio navigation aids

VOR radial/distance  VOR name  Freq  Var
ISOr335/3.8KINSTON VORTAC117.5005W
TYIr176/33.5TAR RIVER VORTAC117.8005W
EWNr316/34.3NEW BERN VOR/DME113.6008W

 
NDB name  Hdg/Dist  Freq  Var  ID
STALS033/12.027609WIS .. ...
ALWOOD222/20.223009WAQE .- --.- .
CHOCOWINITY266/24.538808WRNW .-. -. .--

Airport Services

Runway Information

Runway 18/36

Dimensions: 1600 x 100 ft. / 488 x 30 m
Surface: turf, in excellent condition
RUNWAY 18  RUNWAY 36
Traffic pattern: leftleft
Obstructions: 5 ft. brush, 20 ft. from runway30 ft. trees, 200 ft. from runway

Airport Ownership and Management from official FAA records

Ownership: Privately-owned
Owner: STEPHEN CHASE
13338 OCEAN MIST DR.
JACKSONVILLE, FL 32258
Phone 240-678-8371
Manager: STEPHEN CHASE
PO BOX 268
HOOKERTON, NC 28538
Phone 240-678-8371

Airport Operational Statistics

Aircraft based on the field: 1
Single engine airplanes: 1
    

Additional Remarks

FOR CD CTC WASHINGTON ARTCC AT 703-771-3587.

Instrument Procedures

There are no published instrument procedures at 58NR.

Some nearby airports with instrument procedures:

KISO - Kinston Regional Jetport at Stallings Field (6 nm S)
KPGV - Pitt-Greenville Airport (16 nm NE)
KGWW - Wayne Executive Jetport Airport (18 nm W)
KGSB - Seymour Johnson Air Force Base (19 nm W)
W40 - Mount Olive Municipal Airport (25 nm SW)
 
Loc | Ops | Rwys | IFR | FBO | Links
Com | Nav | Svcs | Stats | Notes
Aerial photo
No photo
 
Airport distance calculator
Flying to Chase Field Airport? Find the distance to fly.

From to 58NR

Sunrise and sunset
Times for 28-Nov-2022
 Local
(UTC-5)
 Zulu
(UTC)
Morning civil twilight06:3211:32
Sunrise06:5911:59
Sunset16:5721:57
Evening civil twilight17:2522:25

Current date and time
Zulu (UTC)  28-Nov-2022 12:53:15
Local (UTC-5)  28-Nov-2022 07:53:15
 
METAR
KISO 
7nm S 
281156Z 24005KT 10SM CLR 11/08 A2983
KPGV 
15nm NE 
281235Z AUTO 24005KT 10SM CLR 12/10 A2982 RMK AO2
KGWW 
18nm W 
281235Z AUTO 22006KT 10SM CLR 10/07 A2984 RMK AO2 T01010071
KGSB 
19nm W 
281155Z 20006KT 10SM CLR 09/06 A2980 RMK AO2A SLP095 70002 T00900063 10159 20090 52023 $
TAF
KISO 
7nm S 
281122Z 2812/2912 25007KT P6SM SKC FM281400 27008G13KT P6SM SKC FM282100 29007KT P6SM FEW090 FM282300 32005KT P6SM FEW200 AMD LTD TO CLD VIS AND WIND
KPGV 
15nm NE 
281122Z 2812/2912 25006KT P6SM SKC FM281500 28009G16KT P6SM FEW180 FM282100 30007KT P6SM FEW050 SCT090 FM290700 00000KT P6SM SKC AMD LTD TO CLD VIS AND WIND
KGSB 
19nm W 
280500Z 2805/2911 20015KT 9999 SCT030 QNH2965INS BECMG 2816/2817 23010KT 9999 BKN030 QNH2968INS BECMG 2905/2906 30006KT 9999 SCT030 QNH3000INS TX16/2818Z TN10/2812Z LAST NO AMDS AFT 2805 NEXT 2812
NOTAMs
Click for the latest NOTAMs
NOTAMs are issued by the DoD/FAA and will open in a separate window not controlled by AirNav.

 

 
 

Would you like to see your business listed on this page?

 If your business provides an interesting product or service to pilots, flight crews, aircraft, or users of the Chase Field Airport, you should consider listing it here.  To start the listing process, click on the button below
 
Add a business
 

Other Pages about Chase Field Airport

Update a link
 
Copyright © AirNav, LLC. All rights reserved. Privacy Policy  Contact